createdAt,value
2019-01-30T00:03:54.628Z,24.17
2019-01-30T00:06:23.113Z,29.07
2019-01-30T00:08:51.611Z,31.33
2019-01-30T00:11:20.140Z,22.20
2019-01-30T00:13:48.659Z,28.93
2019-01-30T00:16:17.198Z,31.30
2019-01-30T00:18:45.656Z,23.50
2019-01-30T00:21:14.203Z,32.37
2019-01-30T00:23:42.672Z,29.10
2019-01-30T00:26:11.206Z,24.90
2019-01-30T00:28:39.691Z,25.07
2019-01-30T00:31:08.124Z,26.93
2019-01-30T00:33:36.626Z,25.33
2019-01-30T00:36:05.232Z,27.70
2019-01-30T00:38:33.687Z,21.27
2019-01-30T00:41:02.259Z,23.57
2019-01-30T00:43:30.731Z,28.67
2019-01-30T00:45:59.245Z,23.47
2019-01-30T00:48:27.873Z,31.40
2019-01-30T00:50:56.648Z,39.80
2019-01-30T00:53:25.255Z,27.77
2019-01-30T00:55:53.802Z,27.33
2019-01-30T00:58:22.306Z,22.57
2019-01-30T01:00:51.296Z,26.63
2019-01-30T01:03:19.893Z,24.73
2019-01-30T01:05:48.431Z,29.60
2019-01-30T01:08:16.965Z,29.77
2019-01-30T01:10:45.477Z,30.40
2019-01-30T01:13:14.652Z,30.73
2019-01-30T01:15:44.239Z,29.27
2019-01-30T01:18:12.705Z,29.10
2019-01-30T01:20:41.274Z,28.30
2019-01-30T01:23:09.899Z,30.43
2019-01-30T01:25:38.423Z,24.70
2019-01-30T01:28:07.074Z,23.80
2019-01-30T01:30:35.513Z,33.77
2019-01-30T01:33:04.052Z,29.07
2019-01-30T01:36:12.553Z,39.83
2019-01-30T01:38:41.091Z,25.43
2019-01-30T01:41:09.635Z,29.30
2019-01-30T01:43:38.113Z,26.67
2019-01-30T01:46:06.588Z,25.60
2019-01-30T01:48:35.149Z,26.97
2019-01-30T01:51:03.613Z,26.73
2019-01-30T01:53:32.224Z,28.13
2019-01-30T01:56:00.704Z,30.60
2019-01-30T01:58:29.389Z,37.50
2019-01-30T02:00:57.941Z,25.93
2019-01-30T02:06:34.551Z,23.17
2019-01-30T02:11:52.111Z,28.27
2019-01-30T02:14:20.907Z,30.63
2019-01-30T02:16:49.497Z,26.10
2019-01-30T02:19:17.954Z,24.70
2019-01-30T02:21:46.448Z,24.30
2019-01-30T02:24:15.242Z,28.80
2019-01-30T02:26:43.728Z,33.90
2019-01-30T02:29:12.200Z,23.83
2019-01-30T02:31:40.800Z,38.27
2019-01-30T02:34:09.323Z,30.20
2019-01-30T02:39:13.618Z,22.77
2019-01-30T02:41:42.410Z,26.60
2019-01-30T02:44:10.923Z,27.60
2019-01-30T02:46:39.437Z,26.77
2019-01-30T02:49:08.266Z,33.00
2019-01-30T02:51:37.166Z,33.83
2019-01-30T02:54:05.810Z,30.43
2019-01-30T02:56:34.391Z,25.17
2019-01-30T02:59:02.929Z,26.10
2019-01-30T03:04:20.427Z,25.83
2019-01-30T03:06:48.902Z,27.53
2019-01-30T03:09:17.379Z,27.27
2019-01-30T03:11:45.799Z,27.33
2019-01-30T03:14:14.296Z,26.27
2019-01-30T03:16:42.877Z,27.53
2019-01-30T03:19:11.442Z,27.33
2019-01-30T03:21:39.891Z,26.20
2019-01-30T03:24:08.358Z,25.93
2019-01-30T03:26:37.206Z,25.93
2019-01-30T03:29:05.785Z,39.47
2019-01-30T03:31:34.304Z,27.80
2019-01-30T03:34:02.886Z,25.00
2019-01-30T03:36:31.436Z,28.70
2019-01-30T03:38:59.892Z,24.23
2019-01-30T03:41:28.370Z,25.80
2019-01-30T03:43:56.912Z,26.07
2019-01-30T03:46:25.355Z,25.07
2019-01-30T03:48:53.811Z,29.73
2019-01-30T03:51:22.350Z,34.60
2019-01-30T03:53:51.232Z,27.47
2019-01-30T03:56:19.880Z,26.40
2019-01-30T03:58:48.413Z,24.00
2019-01-30T04:01:56.911Z,23.80
2019-01-30T04:04:25.291Z,30.40
2019-01-30T04:06:53.830Z,23.30
2019-01-30T04:09:22.469Z,24.37
2019-01-30T04:11:50.946Z,23.37
2019-01-30T04:14:19.476Z,29.40
2019-01-30T04:16:48.007Z,25.30
2019-01-30T04:19:35.752Z,29.43
2019-01-30T04:22:04.371Z,37.07
2019-01-30T04:24:32.784Z,24.50
2019-01-30T04:27:01.255Z,32.10
2019-01-30T04:29:29.706Z,28.77
2019-01-30T04:31:58.677Z,26.40
2019-01-30T04:34:27.264Z,28.87
2019-01-30T04:36:55.720Z,25.30
2019-01-30T04:39:24.249Z,27.80
2019-01-30T04:41:52.693Z,24.70
2019-01-30T04:44:21.209Z,30.80
2019-01-30T04:46:49.985Z,24.70
2019-01-30T04:49:18.536Z,28.97
2019-01-30T04:51:47.017Z,24.10
2019-01-30T04:54:15.600Z,22.67
2019-01-30T04:56:44.090Z,26.80
2019-01-30T04:59:12.641Z,24.80
2019-01-30T05:01:49.456Z,26.17
2019-01-30T05:04:11.352Z,28.63
2019-01-30T05:06:39.853Z,22.97
2019-01-30T05:09:48.295Z,24.77
2019-01-30T05:12:17.203Z,28.70
2019-01-30T05:14:45.588Z,28.40
2019-01-30T05:17:14.132Z,21.60
2019-01-30T05:19:42.620Z,22.93
2019-01-30T05:22:11.543Z,29.53
2019-01-30T05:24:40.447Z,24.03
2019-01-30T05:27:08.932Z,26.23
2019-01-30T05:29:37.375Z,21.93
2019-01-30T05:32:06.011Z,23.90
2019-01-30T05:34:34.532Z,26.17
2019-01-30T05:37:03.354Z,24.90
2019-01-30T05:39:31.902Z,21.67
2019-01-30T05:42:00.469Z,23.13
2019-01-30T05:44:29.045Z,30.93
2019-01-30T05:46:57.504Z,34.20
2019-01-30T05:49:25.966Z,37.07
2019-01-30T05:51:54.562Z,21.30
2019-01-30T05:54:23.364Z,46.43
2019-01-30T05:56:51.987Z,24.00
2019-01-30T05:59:20.522Z,22.20
2019-01-30T06:01:49.311Z,28.30
2019-01-30T06:04:17.810Z,31.77
2019-01-30T06:06:46.316Z,42.03
2019-01-30T06:09:14.827Z,20.83
2019-01-30T06:11:43.460Z,30.97
2019-01-30T06:14:12.030Z,28.60
2019-01-30T06:16:40.598Z,25.43
2019-01-30T06:19:09.130Z,25.73
2019-01-30T06:21:37.691Z,31.70
2019-01-30T06:24:06.235Z,25.80
2019-01-30T06:26:34.789Z,32.70
2019-01-30T06:29:03.358Z,26.83
2019-01-30T06:31:31.750Z,38.40
2019-01-30T06:34:00.505Z,23.20
2019-01-30T06:36:29.049Z,26.90
2019-01-30T06:38:57.563Z,29.20
2019-01-30T06:41:26.150Z,20.93
2019-01-30T06:43:54.795Z,25.50
2019-01-30T06:46:23.740Z,26.57
2019-01-30T06:48:52.622Z,28.27
2019-01-30T06:51:21.099Z,23.70
2019-01-30T06:53:49.608Z,24.17
2019-01-30T06:56:18.231Z,31.87
2019-01-30T06:58:46.814Z,24.60
2019-01-30T07:01:15.341Z,29.50
2019-01-30T07:03:43.742Z,26.87
2019-01-30T07:06:12.253Z,30.93
2019-01-30T07:08:40.696Z,35.33
2019-01-30T07:11:10.674Z,21.03
2019-01-30T07:13:39.546Z,20.90
2019-01-30T07:16:07.987Z,26.90
2019-01-30T07:18:36.445Z,26.63
2019-01-30T07:21:05.351Z,24.67
2019-01-30T07:23:34.139Z,28.93
2019-01-30T07:26:02.624Z,31.50
2019-01-30T07:28:31.135Z,28.00
2019-01-30T07:30:59.636Z,27.27
2019-01-30T07:33:28.087Z,28.33
2019-01-30T07:35:56.650Z,21.63
2019-01-30T07:38:25.462Z,24.23
2019-01-30T07:40:53.953Z,22.70
2019-01-30T07:43:23.002Z,23.70
2019-01-30T07:45:52.635Z,29.93
2019-01-30T07:48:21.184Z,23.70
2019-01-30T07:50:49.697Z,24.70
2019-01-30T07:53:18.204Z,33.30
2019-01-30T07:55:46.694Z,31.87
2019-01-30T07:58:15.154Z,28.93
2019-01-30T08:00:43.743Z,28.50
2019-01-30T08:03:12.341Z,32.20
2019-01-30T08:05:40.844Z,23.30
2019-01-30T08:08:09.324Z,24.70
2019-01-30T08:10:37.905Z,36.97
2019-01-30T08:13:06.768Z,34.03
2019-01-30T08:15:35.371Z,27.30
2019-01-30T08:18:03.895Z,30.03
2019-01-30T08:20:32.526Z,32.60
2019-01-30T08:23:01.013Z,33.60
2019-01-30T08:25:29.630Z,24.83
2019-01-30T08:27:58.705Z,34.90
2019-01-30T08:31:07.376Z,30.70
2019-01-30T08:33:35.841Z,28.53
2019-01-30T08:36:04.675Z,60.00
2019-01-30T08:38:33.426Z,39.27
2019-01-30T08:41:01.872Z,28.63
2019-01-30T08:43:30.521Z,29.67
2019-01-30T08:45:59.026Z,34.50
2019-01-30T08:48:30.095Z,27.60
2019-01-30T08:50:57.926Z,32.80
2019-01-30T08:53:26.760Z,25.97
2019-01-30T08:55:55.268Z,25.30
2019-01-30T08:58:23.876Z,32.13
2019-01-30T09:00:52.457Z,29.33
2019-01-30T09:03:21.254Z,33.27
2019-01-30T09:05:49.835Z,33.43
2019-01-30T09:08:18.286Z,29.60
2019-01-30T09:10:46.897Z,29.70
2019-01-30T09:13:15.472Z,34.90
2019-01-30T09:15:43.998Z,28.30
2019-01-30T09:18:12.458Z,32.87
2019-01-30T09:20:40.942Z,32.63
2019-01-30T09:23:09.545Z,27.10
2019-01-30T09:25:37.985Z,25.17
2019-01-30T09:28:06.513Z,55.77
2019-01-30T09:31:14.919Z,37.63
2019-01-30T09:33:43.375Z,33.17
2019-01-30T09:36:11.860Z,30.10
2019-01-30T09:38:40.416Z,34.30
2019-01-30T09:41:09.024Z,27.40
2019-01-30T09:43:37.533Z,27.37
2019-01-30T09:46:06.045Z,28.70
2019-01-30T09:48:37.015Z,33.60
2019-01-30T09:51:04.918Z,29.50
2019-01-30T09:53:33.453Z,30.93
2019-01-30T09:56:02.183Z,28.53
2019-01-30T09:58:30.605Z,25.77
2019-01-30T10:00:59.260Z,29.83
2019-01-30T10:03:47.308Z,31.23
2019-01-30T10:06:15.851Z,30.43
2019-01-30T10:08:44.486Z,32.60
2019-01-30T10:11:12.935Z,26.67
2019-01-30T10:13:41.541Z,32.07
2019-01-30T10:16:09.992Z,28.00
2019-01-30T10:18:38.520Z,26.73
2019-01-30T10:21:07.068Z,28.53
2019-01-30T10:23:35.566Z,24.10
2019-01-30T10:26:04.098Z,31.67
2019-01-30T10:28:32.589Z,33.90
2019-01-30T10:31:01.430Z,25.90
2019-01-30T10:33:29.893Z,31.93
2019-01-30T10:35:58.420Z,31.63
2019-01-30T10:38:26.986Z,26.53
2019-01-30T10:40:55.524Z,25.47
2019-01-30T10:43:23.959Z,28.33
2019-01-30T10:45:52.355Z,28.50
2019-01-30T10:48:20.888Z,32.17
2019-01-30T10:50:49.357Z,35.00
2019-01-30T10:53:17.885Z,24.87
2019-01-30T10:55:46.446Z,27.73
2019-01-30T10:58:54.863Z,22.83
2019-01-30T11:01:23.422Z,33.20
2019-01-30T11:03:57.400Z,25.83
2019-01-30T11:06:22.649Z,30.93
2019-01-30T11:08:51.039Z,23.93
2019-01-30T11:11:19.552Z,25.57
2019-01-30T11:13:48.071Z,22.77
2019-01-30T11:16:16.686Z,29.07
2019-01-30T11:18:45.299Z,26.23
2019-01-30T11:21:13.855Z,26.70
2019-01-30T11:23:42.330Z,19.30
2019-01-30T11:26:11.060Z,24.43
2019-01-30T11:28:39.669Z,32.53
2019-01-30T11:31:08.178Z,23.53
2019-01-30T11:33:36.862Z,19.90
2019-01-30T11:36:05.390Z,20.70
2019-01-30T11:38:34.020Z,20.47
2019-01-30T11:41:02.746Z,18.80
2019-01-30T11:43:31.385Z,25.60
2019-01-30T11:45:59.900Z,18.63
2019-01-30T11:48:28.475Z,21.20
2019-01-30T11:50:57.088Z,27.70
2019-01-30T11:53:25.784Z,21.60
2019-01-30T11:55:54.309Z,27.07
2019-01-30T11:58:22.762Z,24.63
2019-01-30T12:01:10.490Z,22.60
2019-01-30T12:03:39.016Z,24.33
2019-01-30T12:06:07.970Z,23.60
2019-01-30T12:08:36.561Z,20.50
2019-01-30T12:11:05.154Z,23.33
2019-01-30T12:13:33.709Z,25.87
2019-01-30T12:16:02.250Z,25.60
2019-01-30T12:18:30.811Z,24.17
2019-01-30T12:20:59.313Z,28.20
2019-01-30T12:23:27.764Z,23.57
2019-01-30T12:25:56.252Z,28.70
2019-01-30T12:28:24.810Z,22.90
2019-01-30T12:30:53.364Z,30.13
2019-01-30T12:33:21.992Z,22.87
2019-01-30T12:35:50.537Z,24.37
2019-01-30T12:38:19.084Z,27.90
2019-01-30T12:43:36.670Z,27.20
2019-01-30T12:46:05.359Z,29.40
2019-01-30T12:48:33.876Z,29.93
2019-01-30T12:51:02.504Z,28.60
2019-01-30T12:53:31.134Z,35.93
2019-01-30T12:55:59.707Z,22.37
2019-01-30T12:58:28.306Z,26.43
2019-01-30T13:00:56.794Z,29.27
2019-01-30T13:03:25.409Z,30.40
2019-01-30T13:05:53.966Z,28.77
2019-01-30T13:08:22.569Z,31.60
2019-01-30T13:10:51.123Z,30.63
2019-01-30T13:13:19.733Z,26.00
2019-01-30T13:15:48.264Z,30.73
2019-01-30T13:18:18.650Z,35.30
2019-01-30T13:20:47.222Z,31.33
2019-01-30T13:23:15.693Z,30.60
2019-01-30T13:25:44.408Z,25.43
2019-01-30T13:28:12.887Z,34.90
2019-01-30T13:30:43.581Z,28.47
2019-01-30T13:33:51.759Z,31.43
2019-01-30T13:36:20.309Z,32.13
2019-01-30T13:38:48.923Z,34.00
2019-01-30T13:41:17.383Z,36.73
2019-01-30T13:43:45.854Z,33.17
2019-01-30T13:46:14.408Z,37.03
2019-01-30T13:48:43.351Z,42.80
2019-01-30T13:51:11.891Z,41.70
2019-01-30T13:53:40.431Z,39.60
2019-01-30T13:56:09.112Z,41.43
2019-01-30T13:58:37.722Z,46.40
2019-01-30T14:01:16.987Z,41.53
2019-01-30T14:03:36.591Z,33.67
2019-01-30T14:06:05.256Z,36.17
2019-01-30T14:08:33.721Z,50.43
2019-01-30T14:11:02.170Z,33.83
2019-01-30T14:13:30.799Z,35.77
2019-01-30T14:15:59.257Z,39.70
2019-01-30T14:18:27.854Z,36.23
2019-01-30T14:20:56.375Z,41.93
2019-01-30T14:23:39.163Z,37.40
2019-01-30T14:25:55.190Z,34.00
2019-01-30T14:28:23.726Z,37.40
2019-01-30T14:30:52.174Z,44.53
2019-01-30T14:33:20.660Z,30.47
2019-01-30T14:35:49.973Z,35.93
2019-01-30T14:38:18.364Z,41.63
2019-01-30T14:40:46.896Z,39.00
2019-01-30T14:43:15.321Z,40.53
2019-01-30T14:45:44.113Z,31.70
2019-01-30T14:48:12.825Z,31.93
2019-01-30T14:50:41.324Z,34.37
2019-01-30T14:53:09.826Z,30.23
2019-01-30T14:56:37.376Z,40.80
2019-01-30T14:58:53.146Z,33.67
2019-01-30T15:01:21.838Z,32.70
2019-01-30T15:03:50.321Z,28.37
2019-01-30T15:06:39.089Z,41.70
2019-01-30T15:09:27.211Z,29.40
2019-01-30T15:12:15.101Z,32.23
2019-01-30T15:15:44.229Z,35.73
2019-01-30T15:18:34.393Z,26.57
2019-01-30T15:21:40.745Z,34.60
2019-01-30T15:23:57.049Z,35.97
2019-01-30T15:26:45.464Z,32.77
2019-01-30T15:29:32.474Z,28.73
2019-01-30T15:34:32.419Z,26.67
2019-01-30T15:37:01.133Z,29.47
2019-01-30T15:39:29.926Z,35.93
2019-01-30T15:41:58.511Z,31.07
2019-01-30T15:44:27.159Z,31.57
2019-01-30T15:46:56.067Z,24.20
2019-01-30T15:49:24.555Z,33.30
2019-01-30T15:51:53.554Z,35.17
2019-01-30T15:54:43.393Z,41.63
2019-01-30T15:57:12.650Z,33.10
2019-01-30T16:02:31.452Z,26.53
2019-01-30T16:05:00.270Z,29.63
2019-01-30T16:07:28.966Z,33.67
2019-01-30T16:09:57.564Z,30.20
2019-01-30T16:12:26.073Z,33.27
2019-01-30T16:14:54.738Z,30.70
2019-01-30T16:17:23.366Z,30.57
2019-01-30T16:20:12.388Z,30.17
2019-01-30T16:23:21.056Z,37.57
2019-01-30T16:25:49.738Z,39.83
2019-01-30T16:28:18.723Z,23.40
2019-01-30T16:30:47.509Z,24.17
2019-01-30T16:33:39.626Z,24.80
2019-01-30T16:36:08.898Z,29.13
2019-01-30T16:38:38.071Z,31.93
2019-01-30T16:41:06.853Z,25.97
2019-01-30T16:43:35.582Z,24.77
2019-01-30T16:52:20.126Z,28.43
2019-01-30T16:54:48.938Z,24.03
2019-01-30T16:57:17.540Z,30.20
2019-01-30T16:59:45.995Z,38.23
2019-01-30T17:02:14.733Z,23.90
2019-01-30T17:04:43.260Z,26.07
2019-01-30T17:07:11.804Z,27.93
2019-01-30T17:09:40.377Z,25.50
2019-01-30T17:12:09.094Z,28.13
2019-01-30T17:24:57.318Z,25.27
2019-01-30T17:27:26.195Z,21.13
2019-01-30T17:29:55.121Z,29.37
2019-01-30T17:32:23.624Z,27.40
2019-01-30T17:34:52.187Z,31.47
2019-01-30T17:37:20.715Z,26.43
2019-01-30T17:39:49.526Z,37.13
2019-01-30T17:42:18.104Z,27.10
2019-01-30T17:44:46.720Z,24.37
2019-01-30T17:47:15.269Z,36.60
2019-01-30T17:49:43.897Z,29.70
2019-01-30T17:52:12.437Z,23.63
2019-01-30T17:54:41.414Z,24.40
2019-01-30T17:57:11.647Z,30.23
2019-01-30T17:59:40.128Z,34.23
2019-01-30T18:04:59.286Z,30.70
2019-01-30T18:07:28.037Z,27.87
2019-01-30T18:09:56.548Z,30.07
2019-01-30T18:12:25.400Z,37.23
2019-01-30T18:14:53.901Z,37.37
2019-01-30T18:17:22.785Z,30.83
2019-01-30T18:19:51.564Z,29.67
2019-01-30T18:22:20.243Z,31.37
2019-01-30T18:24:49.284Z,31.20
2019-01-30T18:27:19.039Z,27.70
2019-01-30T18:29:47.505Z,32.23
2019-01-30T18:32:16.043Z,32.30
2019-01-30T18:34:44.591Z,37.23
2019-01-30T18:37:13.174Z,36.37
2019-01-30T18:39:41.790Z,35.67
2019-01-30T18:42:10.488Z,36.67
2019-01-30T18:44:39.017Z,35.90
2019-01-30T18:47:07.478Z,34.60
2019-01-30T18:49:36.011Z,30.20
2019-01-30T18:52:04.551Z,36.87
2019-01-30T18:54:33.060Z,30.83
2019-01-30T18:57:01.698Z,31.30
2019-01-30T18:59:30.251Z,33.63
2019-01-30T19:01:58.818Z,35.70
2019-01-30T19:04:27.296Z,33.27
2019-01-30T19:06:55.897Z,32.20
2019-01-30T19:09:24.428Z,44.83
2019-01-30T19:11:52.872Z,38.10
2019-01-30T19:14:21.358Z,31.60
2019-01-30T19:16:49.868Z,35.77
2019-01-30T19:19:18.344Z,43.37
2019-01-30T19:21:47.106Z,38.20
2019-01-30T19:24:15.587Z,34.07
2019-01-30T19:26:44.207Z,36.43
2019-01-30T19:29:12.807Z,40.17
2019-01-30T19:31:41.363Z,40.47
2019-01-30T19:34:09.905Z,39.00
2019-01-30T19:36:38.590Z,41.63
2019-01-30T19:39:47.003Z,42.80
2019-01-30T19:42:15.605Z,38.67
2019-01-30T19:44:44.179Z,41.70
2019-01-30T19:47:12.817Z,44.27
2019-01-30T19:49:41.685Z,43.57
2019-01-30T19:52:17.031Z,42.07
2019-01-30T19:54:45.646Z,44.37
2019-01-30T19:57:14.294Z,44.57
2019-01-30T19:59:42.797Z,39.20
2019-01-30T20:02:11.464Z,40.73
2019-01-30T20:04:39.921Z,42.60
2019-01-30T20:07:14.729Z,40.67
2019-01-30T20:09:38.813Z,40.57
2019-01-30T20:12:07.498Z,55.53
2019-01-30T20:14:36.024Z,48.90
2019-01-30T20:17:04.620Z,55.87
2019-01-30T20:19:33.187Z,44.03
2019-01-30T20:22:01.676Z,60.60
2019-01-30T20:24:30.261Z,54.87
2019-01-30T20:26:58.815Z,62.67
2019-01-30T20:29:28.393Z,52.13
2019-01-30T20:31:56.880Z,63.63
2019-01-30T20:34:25.425Z,56.57
2019-01-30T20:36:54.014Z,46.70
2019-01-30T20:39:22.453Z,54.37
2019-01-30T20:41:51.026Z,48.07
2019-01-30T20:44:19.934Z,51.07
2019-01-30T20:46:48.848Z,46.90
2019-01-30T20:49:17.688Z,43.90
2019-01-30T20:51:46.936Z,63.70
2019-01-30T20:54:15.562Z,45.13
2019-01-30T20:56:44.186Z,54.50
2019-01-30T20:59:12.678Z,50.47
2019-01-30T21:01:41.496Z,57.53
2019-01-30T21:04:09.917Z,50.43
2019-01-30T21:06:59.423Z,62.53
2019-01-30T21:09:28.262Z,55.57
2019-01-30T21:11:56.772Z,56.27
2019-01-30T21:14:25.420Z,59.17
2019-01-30T21:16:53.980Z,51.80
2019-01-30T21:19:22.415Z,60.17
2019-01-30T21:21:50.992Z,55.90
2019-01-30T21:24:19.388Z,58.33
2019-01-30T21:26:47.820Z,53.10
2019-01-30T21:29:16.367Z,58.00
2019-01-30T21:31:44.840Z,58.10
2019-01-30T21:34:13.493Z,51.00
2019-01-30T21:36:41.959Z,52.80
2019-01-30T21:39:10.501Z,70.73
2019-01-30T21:41:39.122Z,64.83
2019-01-30T21:44:07.647Z,72.97
2019-01-30T21:46:36.160Z,58.13
2019-01-30T21:49:04.731Z,58.37
2019-01-30T21:51:33.235Z,54.10
2019-01-30T21:54:01.714Z,65.63
2019-01-30T21:56:30.280Z,67.67
2019-01-30T21:58:58.733Z,59.60
2019-01-30T22:01:27.313Z,60.23
2019-01-30T22:03:55.767Z,63.53
2019-01-30T22:06:24.303Z,62.60
2019-01-30T22:08:52.871Z,67.93
2019-01-30T22:11:21.395Z,55.13
2019-01-30T22:13:49.870Z,64.83
2019-01-30T22:16:18.424Z,59.97
2019-01-30T22:18:46.907Z,52.20
2019-01-30T22:21:15.427Z,50.63
2019-01-30T22:23:43.986Z,65.33
2019-01-30T22:26:12.512Z,57.97
2019-01-30T22:28:41.419Z,56.97
2019-01-30T22:31:09.913Z,66.33
2019-01-30T22:33:38.463Z,53.33
2019-01-30T22:36:06.953Z,68.00
2019-01-30T22:38:35.401Z,61.33
2019-01-30T22:41:03.964Z,60.73
2019-01-30T22:43:32.477Z,54.97
2019-01-30T22:46:01.038Z,70.53
2019-01-30T22:48:29.492Z,55.40
2019-01-30T22:50:57.973Z,55.87
2019-01-30T22:56:15.550Z,73.73
2019-01-30T22:58:44.061Z,60.37
2019-01-30T23:01:52.617Z,56.87
2019-01-30T23:05:01.383Z,59.83
2019-01-30T23:08:09.908Z,58.33
2019-01-30T23:11:18.431Z,62.53
2019-01-30T23:14:26.929Z,59.17
2019-01-30T23:17:35.412Z,68.87
2019-01-30T23:20:43.867Z,67.83
2019-01-30T23:23:52.327Z,58.67
2019-01-30T23:27:00.783Z,68.63
2019-01-30T23:30:09.244Z,58.43
2019-01-30T23:33:17.698Z,63.37
2019-01-30T23:36:24.889Z,66.03
2019-01-30T23:39:33.316Z,69.77
2019-01-30T23:42:40.797Z,67.33
2019-01-30T23:45:47.999Z,65.90
2019-01-30T23:48:55.079Z,66.27
2019-01-30T23:52:02.349Z,69.30
2019-01-30T23:55:10.793Z,65.80
2019-01-30T23:58:17.953Z,63.40
